createdAt,value
2018-04-18T00:01:22.670Z,100803.55
2018-04-18T00:03:51.040Z,100800.22
2018-04-18T00:06:18.513Z,100803.62
2018-04-18T00:08:46.006Z,100808.83
2018-04-18T00:11:13.515Z,100809.63
2018-04-18T00:13:41.017Z,100812.17
2018-04-18T00:16:08.979Z,100810.91
2018-04-18T00:18:36.465Z,100817.48
2018-04-18T00:21:03.956Z,100817.93
2018-04-18T00:23:31.485Z,100823.52
2018-04-18T00:25:58.973Z,100833.75
2018-04-18T00:28:26.511Z,100829.92
2018-04-18T00:30:54.026Z,100823.08
2018-04-18T00:33:21.526Z,100829.67
2018-04-18T00:35:49.030Z,100830.04
2018-04-18T00:38:16.510Z,100828.41
2018-04-18T00:40:43.994Z,100833.63
2018-04-18T00:43:11.584Z,100832.27
2018-04-18T00:45:39.240Z,100833.17
2018-04-18T00:48:06.729Z,100837.52
2018-04-18T00:50:34.682Z,100840.06
2018-04-18T00:53:02.170Z,100842.67
2018-04-18T00:55:29.647Z,100837.95
2018-04-18T00:57:57.139Z,100842.74
2018-04-18T01:00:24.649Z,100846.59
2018-04-18T01:02:52.115Z,100841.45
2018-04-18T01:05:19.630Z,100847.08
2018-04-18T01:07:47.139Z,100838.56
2018-04-18T01:10:14.687Z,100847.64
2018-04-18T01:12:42.172Z,100845.54
2018-04-18T01:15:09.662Z,100856.32
2018-04-18T01:17:37.189Z,100851.23
2018-04-18T01:20:04.683Z,100846.50
2018-04-18T01:22:32.169Z,100847.30
2018-04-18T01:24:59.689Z,100861.03
2018-04-18T01:27:27.206Z,100857.18
2018-04-18T01:29:54.689Z,100864.03
2018-04-18T01:32:22.196Z,100864.09
2018-04-18T01:34:49.673Z,100855.95
2018-04-18T01:37:17.158Z,100859.38
2018-04-18T01:39:44.634Z,100867.55
2018-04-18T01:42:12.142Z,100862.84
2018-04-18T01:44:39.614Z,100864.19
2018-04-18T01:47:07.114Z,100865.85
2018-04-18T01:49:34.605Z,100866.77
2018-04-18T01:52:02.083Z,100866.78
2018-04-18T01:54:29.581Z,100871.51
2018-04-18T01:56:57.106Z,100872.84
2018-04-18T01:59:24.698Z,100876.30
2018-04-18T02:01:52.163Z,100868.16
2018-04-18T02:04:19.639Z,100874.60
2018-04-18T02:06:47.131Z,100878.45
2018-04-18T02:09:14.631Z,100878.06
2018-04-18T02:11:42.180Z,100874.24
2018-04-18T02:14:09.667Z,100889.67
2018-04-18T02:16:37.168Z,100884.48
2018-04-18T02:19:04.661Z,100887.91
2018-04-18T02:21:32.143Z,100886.58
2018-04-18T02:23:59.657Z,100885.25
2018-04-18T02:26:27.126Z,100885.34
2018-04-18T02:28:54.600Z,100887.97
2018-04-18T02:31:22.107Z,100894.78
2018-04-18T02:33:49.581Z,100897.81
2018-04-18T02:36:17.079Z,100897.41
2018-04-18T02:38:44.545Z,100899.09
2018-04-18T02:41:12.020Z,100900.83
2018-04-18T02:43:39.498Z,100896.09
2018-04-18T02:46:06.993Z,100899.48
2018-04-18T02:48:34.460Z,100900.27
2018-04-18T02:51:01.957Z,100909.68
2018-04-18T02:53:29.422Z,100907.06
2018-04-18T02:55:56.933Z,100907.56
2018-04-18T02:58:24.426Z,100906.33
2018-04-18T03:00:51.922Z,100911.48
2018-04-18T03:03:19.451Z,100918.36
2018-04-18T03:05:47.686Z,100909.32
2018-04-18T03:08:15.142Z,100918.80
2018-04-18T03:10:42.616Z,100917.09
2018-04-18T03:13:10.082Z,100925.20
2018-04-18T03:15:37.579Z,100929.50
2018-04-18T03:18:05.049Z,100926.07
2018-04-18T03:20:32.909Z,100932.91
2018-04-18T03:23:00.473Z,100928.20
2018-04-18T03:25:27.926Z,100935.06
2018-04-18T03:27:55.442Z,100931.21
2018-04-18T03:30:23.401Z,100930.33
2018-04-18T03:32:50.874Z,100935.47
2018-04-18T03:35:18.351Z,100932.86
2018-04-18T03:37:45.858Z,100940.16
2018-04-18T03:40:13.322Z,100941.42
2018-04-18T03:42:41.025Z,100941.03
2018-04-18T03:45:08.511Z,100947.02
2018-04-18T03:47:36.008Z,100945.73
2018-04-18T03:50:03.501Z,100944.88
2018-04-18T03:52:30.985Z,100948.31
2018-04-18T03:54:58.457Z,100952.18
2018-04-18T03:57:25.928Z,100954.74
2018-04-18T03:59:53.397Z,100951.73
2018-04-18T04:02:20.880Z,100953.47
2018-04-18T04:04:48.427Z,100955.62
2018-04-18T04:09:49.569Z,100958.17
2018-04-18T04:12:17.034Z,100958.17
2018-04-18T04:14:44.539Z,100960.32
2018-04-18T04:17:23.793Z,100963.73
2018-04-18T04:20:03.113Z,100964.14
2018-04-18T04:22:42.434Z,100971.44
2018-04-18T04:25:09.906Z,100969.71
2018-04-18T04:27:37.364Z,100969.29
2018-04-18T04:30:05.718Z,100968.86
2018-04-18T04:32:33.169Z,100980.84
2018-04-18T04:35:00.658Z,100982.13
2018-04-18T04:37:28.130Z,100976.98
2018-04-18T04:39:55.908Z,100988.53
2018-04-18T04:42:23.418Z,100990.25
2018-04-18T04:44:50.914Z,100994.08
2018-04-18T04:47:18.385Z,100989.35
2018-04-18T04:49:45.880Z,100987.63
2018-04-18T04:52:13.349Z,100991.05
2018-04-18T04:54:40.812Z,101002.19
2018-04-18T04:57:08.283Z,100996.19
2018-04-18T04:59:35.756Z,101006.91
2018-04-18T05:02:03.205Z,101008.17
2018-04-18T05:04:30.764Z,101003.03
2018-04-18T05:06:59.289Z,101007.73
2018-04-18T05:09:26.825Z,101005.11
2018-04-18T05:11:54.311Z,101008.89
2018-04-18T05:14:21.803Z,101011.86
2018-04-18T05:16:49.277Z,101011.47
2018-04-18T05:19:16.778Z,101016.15
2018-04-18T05:21:44.242Z,101016.13
2018-04-18T05:24:11.731Z,101023.36
2018-04-18T05:26:39.184Z,101023.69
2018-04-18T05:29:06.658Z,101016.39
2018-04-18T05:31:34.126Z,101023.20
2018-04-18T05:34:01.604Z,101029.19
2018-04-18T05:36:29.092Z,101034.73
2018-04-18T05:38:56.578Z,101037.70
2018-04-18T05:41:24.095Z,101035.02
2018-04-18T05:43:51.578Z,101043.98
2018-04-18T05:46:19.076Z,101046.37
2018-04-18T05:48:46.555Z,101049.05
2018-04-18T05:51:14.050Z,101054.03
2018-04-18T05:53:41.522Z,101055.31
2018-04-18T05:56:09.012Z,101057.39
2018-04-18T05:58:36.539Z,101050.03
2018-04-18T06:01:04.097Z,101054.27
2018-04-18T06:03:31.574Z,101061.47
2018-04-18T06:05:59.030Z,101067.85
2018-04-18T06:08:26.501Z,101057.20
2018-04-18T06:10:54.035Z,101061.75
2018-04-18T06:13:21.503Z,101069.36
2018-04-18T06:15:48.992Z,101062.05
2018-04-18T06:18:16.469Z,101068.41
2018-04-18T06:20:44.037Z,101065.86
2018-04-18T06:23:11.531Z,101069.77
2018-04-18T06:28:05.964Z,101067.84
2018-04-18T06:30:33.499Z,101069.46
2018-04-18T06:33:01.013Z,101072.36
2018-04-18T06:35:28.488Z,101075.38
2018-04-18T06:37:56.151Z,101085.45
2018-04-18T06:40:23.638Z,101085.77
2018-04-18T06:42:51.846Z,101079.30
2018-04-18T06:45:19.321Z,101074.32
2018-04-18T06:47:46.819Z,101085.17
2018-04-18T06:50:14.376Z,101084.88
2018-04-18T06:52:41.853Z,101080.80
2018-04-18T06:55:09.351Z,101087.77
2018-04-18T06:57:36.878Z,101076.00
2018-04-18T07:00:04.375Z,101076.25
2018-04-18T07:02:31.856Z,101076.09
2018-04-18T07:04:59.340Z,101083.38
2018-04-18T07:07:26.804Z,101083.61
2018-04-18T07:09:54.341Z,101087.20
2018-04-18T07:12:21.815Z,101091.64
2018-04-18T07:14:49.314Z,101089.61
2018-04-18T07:17:16.807Z,101083.08
2018-04-18T07:19:44.293Z,101096.93
2018-04-18T07:22:12.189Z,101100.47
2018-04-18T07:24:39.689Z,101098.37
2018-04-18T07:27:07.158Z,101104.73
2018-04-18T07:29:34.657Z,101102.58
2018-04-18T07:32:02.186Z,101105.60
2018-04-18T07:34:29.698Z,101107.08
2018-04-18T07:36:57.194Z,101107.31
2018-04-18T07:39:24.676Z,101104.66
2018-04-18T07:41:52.145Z,101107.25
2018-04-18T07:44:19.631Z,101109.95
2018-04-18T07:46:47.118Z,101116.17
2018-04-18T07:49:14.603Z,101115.37
2018-04-18T07:51:42.106Z,101115.21
2018-04-18T07:54:09.620Z,101123.84
2018-04-18T07:56:37.123Z,101114.69
2018-04-18T07:59:04.590Z,101113.92
2018-04-18T08:01:32.087Z,101119.05
2018-04-18T08:03:59.572Z,101118.46
2018-04-18T08:06:27.086Z,101112.44
2018-04-18T08:08:54.564Z,101115.44
2018-04-18T08:11:22.107Z,101123.81
2018-04-18T08:13:49.598Z,101123.81
2018-04-18T08:16:17.079Z,101123.48
2018-04-18T08:18:44.622Z,101123.44
2018-04-18T08:21:12.235Z,101112.33
2018-04-18T08:23:39.728Z,101117.78
2018-04-18T08:26:07.418Z,101120.20
2018-04-18T08:28:34.941Z,101128.09
2018-04-18T08:31:02.443Z,101115.67
2018-04-18T08:33:29.951Z,101112.91
2018-04-18T08:35:57.431Z,101128.38
2018-04-18T08:38:24.917Z,101121.85
2018-04-18T08:40:52.469Z,101121.49
2018-04-18T08:43:19.933Z,101116.23
2018-04-18T08:45:47.406Z,101118.82
2018-04-18T08:48:14.953Z,101108.00
2018-04-18T08:50:42.445Z,101107.42
2018-04-18T08:53:09.933Z,101108.80
2018-04-18T08:55:37.417Z,101103.36
2018-04-18T08:58:04.887Z,101110.87
2018-04-18T09:00:32.465Z,101108.66
2018-04-18T09:02:59.961Z,101117.08
2018-04-18T09:05:27.455Z,101107.82
2018-04-18T09:07:54.936Z,101109.17
2018-04-18T09:10:22.411Z,101103.48
2018-04-18T09:12:49.875Z,101106.34
2018-04-18T09:15:17.407Z,101093.81
2018-04-18T09:17:44.894Z,101110.73
2018-04-18T09:20:12.391Z,101100.50
2018-04-18T09:22:39.903Z,101102.20
2018-04-18T09:25:07.395Z,101114.02
2018-04-18T09:27:34.872Z,101114.05
2018-04-18T09:30:02.342Z,101113.73
2018-04-18T09:32:29.890Z,101093.02
2018-04-18T09:34:57.395Z,101116.29
2018-04-18T09:37:24.930Z,101124.16
2018-04-18T09:39:52.417Z,101100.00
2018-04-18T09:42:19.921Z,101099.14
2018-04-18T09:44:47.419Z,101091.72
2018-04-18T09:47:14.931Z,101095.84
2018-04-18T09:49:42.399Z,101095.19
2018-04-18T09:52:09.965Z,101083.70
2018-04-18T09:54:37.473Z,101091.52
2018-04-18T09:57:04.963Z,101084.32
2018-04-18T09:59:32.453Z,101097.77
2018-04-18T10:02:05.521Z,101093.58
2018-04-18T10:04:33.001Z,101097.77
2018-04-18T10:07:00.535Z,101091.58
2018-04-18T10:09:28.005Z,101078.46
2018-04-18T10:11:55.479Z,101077.80
2018-04-18T10:14:22.989Z,101086.80
2018-04-18T10:16:50.502Z,101079.95
2018-04-18T10:19:17.970Z,101068.86
2018-04-18T10:21:45.522Z,101070.42
2018-04-18T10:24:13.019Z,101083.34
2018-04-18T10:26:40.577Z,101080.39
2018-04-18T10:29:08.111Z,101079.87
2018-04-18T10:31:35.718Z,101081.17
2018-04-18T10:34:03.161Z,101072.23
2018-04-18T10:36:30.829Z,101062.81
2018-04-18T10:38:58.310Z,101065.91
2018-04-18T10:41:25.795Z,101055.00
2018-04-18T10:43:53.297Z,101062.36
2018-04-18T10:46:20.818Z,101064.53
2018-04-18T10:48:48.305Z,101062.95
2018-04-18T10:51:15.781Z,101059.06
2018-04-18T10:53:43.297Z,101057.23
2018-04-18T10:56:10.831Z,101060.05
2018-04-18T10:58:38.370Z,101050.02
2018-04-18T11:01:05.812Z,101052.02
2018-04-18T11:03:33.297Z,101056.45
2018-04-18T11:06:00.822Z,101043.14
2018-04-18T11:08:28.336Z,101048.72
2018-04-18T11:10:55.801Z,101038.06
2018-04-18T11:13:23.306Z,101054.75
2018-04-18T11:15:50.781Z,101037.91
2018-04-18T11:18:18.358Z,101032.41
2018-04-18T11:20:45.839Z,101034.69
2018-04-18T11:23:13.311Z,101033.17
2018-04-18T11:25:40.823Z,101029.62
2018-04-18T11:28:08.326Z,101026.33
2018-04-18T11:30:35.801Z,101030.48
2018-04-18T11:33:03.282Z,101018.56
2018-04-18T11:35:30.774Z,101029.53
2018-04-18T11:37:58.314Z,101023.33
2018-04-18T11:40:25.790Z,101016.37
2018-04-18T11:42:53.280Z,101017.15
2018-04-18T11:45:20.782Z,101019.27
2018-04-18T11:47:48.266Z,101013.78
2018-04-18T11:50:15.750Z,101022.77
2018-04-18T11:52:43.296Z,101013.04
2018-04-18T11:55:10.779Z,101014.13
2018-04-18T11:57:38.317Z,101024.11
2018-04-18T12:00:05.817Z,101017.53
2018-04-18T12:02:33.320Z,101002.25
2018-04-18T12:05:00.782Z,101018.12
2018-04-18T12:07:28.310Z,101006.97
2018-04-18T12:09:55.823Z,101022.78
2018-04-18T12:12:23.293Z,101012.56
2018-04-18T12:14:50.812Z,101022.13
2018-04-18T12:17:18.283Z,100998.40
2018-04-18T12:19:45.739Z,100996.41
2018-04-18T12:22:13.293Z,100999.12
2018-04-18T12:24:40.764Z,100981.15
2018-04-18T12:27:08.236Z,100985.22
2018-04-18T12:29:35.768Z,100984.02
2018-04-18T12:32:03.235Z,100989.78
2018-04-18T12:34:30.840Z,100972.61
2018-04-18T12:36:58.365Z,100988.02
2018-04-18T12:39:25.827Z,100976.69
2018-04-18T12:41:53.303Z,100971.40
2018-04-18T12:44:20.775Z,100971.89
2018-04-18T12:46:48.268Z,100962.67
2018-04-18T12:49:15.734Z,100973.58
2018-04-18T12:51:43.232Z,100969.48
2018-04-18T12:54:10.723Z,100964.20
2018-04-18T12:56:38.206Z,100969.35
2018-04-18T12:59:05.723Z,100972.58
2018-04-18T13:01:33.231Z,100970.13
2018-04-18T13:04:00.779Z,100968.84
2018-04-18T13:06:28.301Z,100969.92
2018-04-18T13:08:55.751Z,100973.94
2018-04-18T13:11:23.248Z,100959.34
2018-04-18T13:13:51.491Z,100957.62
2018-04-18T13:16:18.965Z,100956.64
2018-04-18T13:18:46.451Z,100942.06
2018-04-18T13:21:13.913Z,100946.34
2018-04-18T13:23:41.419Z,100944.77
2018-04-18T13:26:08.923Z,100933.17
2018-04-18T13:28:36.444Z,100938.09
2018-04-18T13:31:03.920Z,100940.92
2018-04-18T13:33:31.819Z,100931.91
2018-04-18T13:35:59.354Z,100939.01
2018-04-18T13:38:26.816Z,100943.84
2018-04-18T13:40:54.343Z,100957.07
2018-04-18T13:43:21.823Z,100937.73
2018-04-18T13:45:49.924Z,100927.28
2018-04-18T13:48:17.452Z,100933.57
2018-04-18T13:50:44.952Z,100922.80
2018-04-18T13:53:12.474Z,100920.78
2018-04-18T13:55:39.981Z,100917.62
2018-04-18T13:58:07.448Z,100916.17
2018-04-18T14:00:34.945Z,100925.42
2018-04-18T14:03:02.418Z,100919.56
2018-04-18T14:05:29.979Z,100909.83
2018-04-18T14:07:57.455Z,100911.42
2018-04-18T14:10:24.920Z,100911.23
2018-04-18T14:12:52.427Z,100914.94
2018-04-18T14:15:21.484Z,100925.52
2018-04-18T14:17:49.021Z,100912.33
2018-04-18T14:20:16.494Z,100916.47
2018-04-18T14:22:43.982Z,100914.70
2018-04-18T14:25:11.466Z,100911.30
2018-04-18T14:27:39.006Z,100904.67
2018-04-18T14:30:06.469Z,100910.50
2018-04-18T14:32:35.155Z,100908.22
2018-04-18T14:35:02.644Z,100899.77
2018-04-18T14:37:30.126Z,100906.16
2018-04-18T14:39:57.651Z,100912.64
2018-04-18T14:42:25.152Z,100898.78
2018-04-18T14:44:52.634Z,100902.69
2018-04-18T14:47:20.124Z,100907.21
2018-04-18T14:49:47.585Z,100904.64
2018-04-18T14:52:15.107Z,100908.11
2018-04-18T14:54:42.607Z,100904.77
2018-04-18T14:57:10.123Z,100897.86
2018-04-18T14:59:37.624Z,100904.19
2018-04-18T15:02:05.143Z,100905.84
2018-04-18T15:04:32.643Z,100899.75
2018-04-18T15:07:00.155Z,100904.00
2018-04-18T15:09:27.627Z,100899.65
2018-04-18T15:11:55.145Z,100902.05
2018-04-18T15:14:22.636Z,100897.55
2018-04-18T15:16:50.283Z,100895.02
2018-04-18T15:19:17.765Z,100898.15
2018-04-18T15:21:45.301Z,100891.17
2018-04-18T15:24:12.819Z,100888.11
2018-04-18T15:26:40.349Z,100891.14
2018-04-18T15:29:07.819Z,100892.20
2018-04-18T15:31:35.305Z,100888.41
2018-04-18T15:34:02.856Z,100899.00
2018-04-18T15:36:30.928Z,100893.31
2018-04-18T15:38:58.375Z,100891.56
2018-04-18T15:41:25.892Z,100890.20
2018-04-18T15:43:53.354Z,100890.84
2018-04-18T15:46:20.865Z,100884.96
2018-04-18T15:48:48.375Z,100886.30
2018-04-18T15:51:15.962Z,100896.14
2018-04-18T15:53:43.492Z,100882.81
2018-04-18T15:56:11.040Z,100886.53
2018-04-18T15:58:38.540Z,100886.11
2018-04-18T16:01:06.070Z,100886.67
2018-04-18T16:03:33.529Z,100874.44
2018-04-18T16:06:01.040Z,100886.02
2018-04-18T16:08:28.567Z,100879.81
2018-04-18T16:10:56.059Z,100887.79
2018-04-18T16:13:23.796Z,100879.08
2018-04-18T16:15:51.309Z,100900.70
2018-04-18T16:18:18.896Z,100876.20
2018-04-18T16:20:46.411Z,100875.88
2018-04-18T16:23:13.869Z,100882.88
2018-04-18T16:25:41.561Z,100874.16
2018-04-18T16:28:09.013Z,100876.09
2018-04-18T16:30:40.969Z,100874.36
2018-04-18T16:33:09.563Z,100873.41
2018-04-18T16:35:37.022Z,100869.36
2018-04-18T16:38:04.649Z,100867.91
2018-04-18T16:40:32.351Z,100864.89
2018-04-18T16:42:59.837Z,100867.39
2018-04-18T16:45:27.347Z,100865.22
2018-04-18T16:47:54.846Z,100868.72
2018-04-18T16:50:22.324Z,100868.24
2018-04-18T16:52:49.843Z,100866.09
2018-04-18T16:55:17.368Z,100868.02
2018-04-18T16:57:44.862Z,100867.73
2018-04-18T17:00:12.348Z,100873.52
2018-04-18T17:02:39.912Z,100870.84
2018-04-18T17:05:07.362Z,100877.81
2018-04-18T17:07:34.841Z,100876.84
2018-04-18T17:10:02.357Z,100873.88
2018-04-18T17:15:03.710Z,100868.66
2018-04-18T17:17:31.265Z,100863.34
2018-04-18T17:19:58.743Z,100867.17
2018-04-18T17:22:26.499Z,100868.12
2018-04-18T17:24:53.972Z,100877.37
2018-04-18T17:27:21.491Z,100877.14
2018-04-18T17:29:48.978Z,100871.36
2018-04-18T17:32:16.482Z,100877.97
2018-04-18T17:34:44.619Z,100876.34
2018-04-18T17:37:12.210Z,100875.13
2018-04-18T17:39:39.813Z,100879.23
2018-04-18T17:42:07.456Z,100882.52
2018-04-18T17:44:35.826Z,100884.19
2018-04-18T17:47:03.332Z,100877.61
2018-04-18T17:49:30.823Z,100874.66
2018-04-18T17:51:58.389Z,100880.14
2018-04-18T17:54:25.882Z,100877.56
2018-04-18T17:56:53.378Z,100880.83
2018-04-18T17:59:20.928Z,100876.44
2018-04-18T18:01:48.422Z,100880.05
2018-04-18T18:04:15.964Z,100885.95
2018-04-18T18:06:43.447Z,100889.64
2018-04-18T18:09:10.915Z,100887.90
2018-04-18T18:11:38.550Z,100890.11
2018-04-18T18:14:06.016Z,100894.25
2018-04-18T18:16:33.501Z,100896.95
2018-04-18T18:19:01.070Z,100892.05
2018-04-18T18:21:28.598Z,100894.57
2018-04-18T18:23:56.087Z,100891.55
2018-04-18T18:26:23.647Z,100897.38
2018-04-18T18:28:51.127Z,100903.55
2018-04-18T18:31:18.657Z,100900.36
2018-04-18T18:33:46.159Z,100901.22
2018-04-18T18:36:13.709Z,100908.47
2018-04-18T18:38:41.208Z,100909.74
2018-04-18T18:41:08.760Z,100909.06
2018-04-18T18:43:36.293Z,100913.90
2018-04-18T18:46:03.775Z,100918.14
2018-04-18T18:48:31.374Z,100922.27
2018-04-18T18:50:58.945Z,100922.58
2018-04-18T18:53:26.442Z,100924.66
2018-04-18T18:55:54.540Z,100925.30
2018-04-18T18:58:22.034Z,100933.27
2018-04-18T19:00:49.502Z,100929.99
2018-04-18T19:03:16.991Z,100930.18
2018-04-18T19:05:44.479Z,100930.43
2018-04-18T19:08:11.992Z,100928.99
2018-04-18T19:10:39.506Z,100929.54
2018-04-18T19:13:07.050Z,100929.56
2018-04-18T19:15:34.583Z,100931.41
2018-04-18T19:18:02.075Z,100930.91
2018-04-18T19:20:29.552Z,100926.25
2018-04-18T19:22:57.074Z,100929.39
2018-04-18T19:25:24.575Z,100920.47
2018-04-18T19:27:52.069Z,100920.06
2018-04-18T19:30:19.621Z,100920.12
2018-04-18T19:32:47.153Z,100929.32
2018-04-18T19:35:14.830Z,100928.53
2018-04-18T19:37:42.539Z,100932.17
2018-04-18T19:40:10.068Z,100930.34
2018-04-18T19:42:38.017Z,100925.48
2018-04-18T19:45:06.963Z,100930.33
2018-04-18T19:47:34.657Z,100924.19
2018-04-18T19:50:02.333Z,100924.40
2018-04-18T19:52:30.757Z,100923.75
2018-04-18T19:54:58.353Z,100921.53
2018-04-18T19:57:26.096Z,100921.22
2018-04-18T19:59:53.777Z,100921.02
2018-04-18T20:02:21.418Z,100922.75
2018-04-18T20:04:49.182Z,100923.27
2018-04-18T20:07:16.787Z,100920.53
2018-04-18T20:09:44.404Z,100918.63
2018-04-18T20:12:12.024Z,100916.30
2018-04-18T20:14:41.006Z,100917.94
2018-04-18T20:17:08.642Z,100920.30
2018-04-18T20:19:36.388Z,100916.36
2018-04-18T20:22:04.144Z,100921.44
2018-04-18T20:24:31.668Z,100916.09
2018-04-18T20:27:03.022Z,100917.70
2018-04-18T20:29:31.848Z,100928.23
2018-04-18T20:32:00.347Z,100930.00
2018-04-18T20:34:27.990Z,100925.02
2018-04-18T20:36:55.538Z,100925.06
2018-04-18T20:39:23.112Z,100923.47
2018-04-18T20:41:54.691Z,100927.09
2018-04-18T20:44:22.327Z,100925.58
2018-04-18T20:46:53.267Z,100932.17
2018-04-18T20:49:20.971Z,100927.16
2018-04-18T20:51:48.633Z,100934.19
2018-04-18T20:54:16.268Z,100925.38
2018-04-18T20:56:44.399Z,100922.95
2018-04-18T20:59:11.900Z,100925.27
2018-04-18T21:01:39.515Z,100927.08
2018-04-18T21:04:07.128Z,100927.17
2018-04-18T21:06:34.767Z,100930.13
2018-04-18T21:09:02.439Z,100930.13
2018-04-18T21:11:35.539Z,100928.84
2018-04-18T21:14:03.204Z,100930.61
2018-04-18T21:16:31.774Z,100927.17
2018-04-18T21:18:59.418Z,100932.91
2018-04-18T21:21:26.998Z,100930.27
2018-04-18T21:23:54.712Z,100936.27
2018-04-18T21:26:22.476Z,100941.08
2018-04-18T21:28:50.010Z,100936.59
2018-04-18T21:31:17.563Z,100940.04
2018-04-18T21:33:45.143Z,100943.72
2018-04-18T21:36:12.655Z,100941.90
2018-04-18T21:38:40.188Z,100946.48
2018-04-18T21:41:07.971Z,100945.91
2018-04-18T21:43:35.557Z,100952.23
2018-04-18T21:46:03.046Z,100948.74
2018-04-18T21:48:31.497Z,100954.01
2018-04-18T21:50:59.134Z,100954.11
2018-04-18T21:53:26.629Z,100950.56
2018-04-18T21:55:54.123Z,100946.34
2018-04-18T21:58:21.633Z,100953.96
2018-04-18T22:00:49.123Z,100956.02
2018-04-18T22:03:16.615Z,100963.14
2018-04-18T22:05:44.135Z,100963.58
2018-04-18T22:08:11.616Z,100970.09
2018-04-18T22:10:39.132Z,100970.23
2018-04-18T22:13:06.645Z,100968.81
2018-04-18T22:15:36.014Z,100974.84
2018-04-18T22:18:04.820Z,100975.39
2018-04-18T22:20:33.515Z,100968.47
2018-04-18T22:23:01.040Z,100972.81
2018-04-18T22:25:28.810Z,100976.30
2018-04-18T22:27:56.314Z,100974.19
2018-04-18T22:30:23.844Z,100972.50
2018-04-18T22:32:51.369Z,100968.75
2018-04-18T22:35:18.959Z,100970.52
2018-04-18T22:37:46.503Z,100972.78
2018-04-18T22:40:13.971Z,100976.77
2018-04-18T22:42:41.460Z,100980.29
2018-04-18T22:45:08.962Z,100982.97
2018-04-18T22:47:36.446Z,100978.75
2018-04-18T22:50:04.832Z,100977.42
2018-04-18T22:52:32.390Z,100984.00
2018-04-18T22:55:00.327Z,100979.80
2018-04-18T22:57:27.825Z,100991.13
2018-04-18T22:59:55.352Z,100983.34
2018-04-18T23:02:22.828Z,100991.13
2018-04-18T23:04:50.422Z,100985.23
2018-04-18T23:07:17.956Z,100986.87
2018-04-18T23:09:45.463Z,100985.67
2018-04-18T23:12:13.264Z,100981.46
2018-04-18T23:14:40.744Z,100984.15
2018-04-18T23:17:08.584Z,100984.69
2018-04-18T23:19:36.219Z,100985.62
2018-04-18T23:22:04.492Z,100985.63
2018-04-18T23:24:32.565Z,100985.27
2018-04-18T23:27:00.104Z,100987.48
2018-04-18T23:29:27.779Z,100984.52
2018-04-18T23:31:55.297Z,100985.38
2018-04-18T23:34:22.764Z,100983.70
2018-04-18T23:36:50.250Z,100978.64
2018-04-18T23:39:17.795Z,100982.56
2018-04-18T23:41:45.285Z,100981.35
2018-04-18T23:44:12.848Z,100982.22
2018-04-18T23:46:40.332Z,100980.09
2018-04-18T23:49:07.802Z,100976.26
2018-04-18T23:51:35.328Z,100977.97
2018-04-18T23:54:02.814Z,100986.58
2018-04-18T23:56:30.870Z,100983.19
2018-04-18T23:58:58.347Z,100978.52
